SBSL/SLZ METAR and TAF weather

Enter ICAO airport designator
Station Type Date Time Source
SBSL METAR 2019/04/25 18:00 UTC NOAA

SBSL 251800Z 04006KT 9999 BKN017 FEW020TCU BKN100 25/24 Q1010 R ETS


Station Type Date Time Source
SBSL Decoded METAR 2019/04/25 18:00 UTC NOAA

Sao Luiz Aeroporto , Brazil (SBSL) 02-36S 044-14W 53M
Apr 25, 2019 - 02:00 PM EDT / 2019.04.25 1800 UTC
Wind: from the NE (040 degrees) at 7 MPH (6 KT):0
Visibility: greater than 7 mile(s):0
Sky conditions: mostly cloudy
Weather: Towering cumulus clouds observed
Temperature: 77 F (25 C)
Dew Point: 75 F (24 C)
Relative Humidity: 94%
Pressure (altimeter): 29.83 in. Hg (1010 hPa)
ob: SBSL 251800Z 04006KT 9999 BKN017 FEW020TCU BKN100 25/24 Q1010 R ETS
cycle: 18

Station Type Date Time Source
SBSL TAF 2019/04/25 18:55 UTC NOAA

TAF SBSL 251600Z 2518/2618 09007KT 9999 SCT018 FEW025TCU TX30/2519Z T N25/2606Z PROB30 2518/2520 4000 TSRA SCT020 FEW025CB
BECMG 2522/2523 03006KT S CT016
RMK PFM

Example: see airport list